createdAt,value
2023-04-25T00:00:37.089Z,4.93
2023-04-25T00:03:06.849Z,4.32
2023-04-25T00:05:38.397Z,7.13
2023-04-25T00:08:12.861Z,6.18
2023-04-25T00:10:40.309Z,5.43
2023-04-25T00:13:09.461Z,6.68
2023-04-25T00:15:37.369Z,6.57
2023-04-25T00:18:04.795Z,5.68
2023-04-25T00:20:32.163Z,5.07
2023-04-25T00:22:59.607Z,4.80
2023-04-25T00:25:32.743Z,4.32
2023-04-25T00:28:01.136Z,4.22
2023-04-25T00:30:28.609Z,4.25
2023-04-25T00:32:57.184Z,4.57
2023-04-25T00:35:24.648Z,3.90
2023-04-25T00:37:52.008Z,6.15
2023-04-25T00:40:19.479Z,5.88
2023-04-25T00:42:47.900Z,5.00
2023-04-25T00:45:16.982Z,3.97
2023-04-25T00:47:44.920Z,4.13
2023-04-25T00:50:14.336Z,3.45
2023-04-25T00:52:44.813Z,3.60
2023-04-25T00:55:12.652Z,5.85
2023-04-25T00:57:40.502Z,3.78
2023-04-25T01:02:51.342Z,4.05
2023-04-25T01:05:20.270Z,2.90
2023-04-25T01:07:48.562Z,2.50
2023-04-25T01:10:16.458Z,2.53
2023-04-25T01:12:43.713Z,2.63
2023-04-25T01:15:11.414Z,2.45
2023-04-25T01:17:45.928Z,2.17
2023-04-25T01:20:15.293Z,2.30
2023-04-25T01:22:43.292Z,2.22
2023-04-25T01:25:11.719Z,3.00
2023-04-25T01:27:39.528Z,3.05
2023-04-25T01:30:08.885Z,2.28
2023-04-25T01:32:39.732Z,3.88
2023-04-25T01:35:12.650Z,2.53
2023-04-25T01:37:44.584Z,4.90
2023-04-25T01:40:13.750Z,2.05
2023-04-25T01:42:43.594Z,3.03
2023-04-25T01:45:13.408Z,2.85
2023-04-25T01:47:44.988Z,3.60
2023-04-25T01:50:14.604Z,3.17
2023-04-25T01:52:44.114Z,4.13
2023-04-25T01:55:13.479Z,3.55
2023-04-25T01:57:41.139Z,4.15
2023-04-25T02:00:10.254Z,3.10
2023-04-25T02:02:37.803Z,3.65
2023-04-25T02:05:05.945Z,3.65
2023-04-25T02:07:34.050Z,5.50
2023-04-25T02:10:01.347Z,5.07
2023-04-25T02:12:30.096Z,4.07
2023-04-25T02:14:57.791Z,4.40
2023-04-25T02:17:25.238Z,4.32
2023-04-25T02:19:52.693Z,3.50
2023-04-25T02:22:20.168Z,3.70
2023-04-25T02:24:48.046Z,4.03
2023-04-25T02:27:16.714Z,5.95
2023-04-25T02:29:50.840Z,4.35
2023-04-25T02:32:18.268Z,4.07
2023-04-25T02:34:45.890Z,4.35
2023-04-25T02:37:14.715Z,3.75
2023-04-25T02:39:44.215Z,5.07
2023-04-25T02:42:12.481Z,4.00
2023-04-25T02:44:39.910Z,4.55
2023-04-25T02:47:08.494Z,4.70
2023-04-25T02:49:35.970Z,7.22
2023-04-25T02:52:04.443Z,4.65
2023-04-25T02:54:32.166Z,5.63
2023-04-25T02:57:00.229Z,4.70
2023-04-25T02:59:27.849Z,5.25
2023-04-25T03:01:54.838Z,6.00
2023-04-25T03:04:25.081Z,5.85
2023-04-25T03:06:52.660Z,5.03
2023-04-25T03:09:20.813Z,5.53
2023-04-25T03:11:50.141Z,5.30
2023-04-25T03:14:17.583Z,6.00
2023-04-25T03:16:45.102Z,6.40
2023-04-25T03:19:12.661Z,6.25
2023-04-25T03:21:40.100Z,6.63
2023-04-25T03:24:07.506Z,6.50
2023-04-25T03:26:34.960Z,7.32
2023-04-25T03:29:02.350Z,6.95
2023-04-25T03:31:29.816Z,7.75
2023-04-25T03:33:58.273Z,9.07
2023-04-25T03:36:26.039Z,7.80
2023-04-25T03:38:59.375Z,8.35
2023-04-25T03:41:27.066Z,9.85
2023-04-25T03:43:54.242Z,9.77
2023-04-25T03:46:21.793Z,8.10
2023-04-25T03:48:49.382Z,9.13
2023-04-25T03:51:17.017Z,10.02
2023-04-25T03:53:51.263Z,11.02
2023-04-25T03:56:21.490Z,7.93
2023-04-25T03:58:50.926Z,10.50
2023-04-25T04:01:18.292Z,8.45
2023-04-25T04:03:46.197Z,9.32
2023-04-25T04:06:14.454Z,8.95
2023-04-25T04:08:49.558Z,8.55
2023-04-25T04:11:17.047Z,9.00
2023-04-25T04:13:44.572Z,7.80
2023-04-25T04:16:12.921Z,9.80
2023-04-25T04:18:47.196Z,10.45
2023-04-25T04:21:14.351Z,9.02
2023-04-25T04:23:42.155Z,9.77
2023-04-25T04:26:11.381Z,7.13
2023-04-25T04:28:39.254Z,16.25
2023-04-25T04:31:07.201Z,8.27
2023-04-25T04:33:34.671Z,8.27
2023-04-25T04:36:03.942Z,8.07
2023-04-25T04:38:32.239Z,10.15
2023-04-25T04:40:59.670Z,10.05
2023-04-25T04:43:26.716Z,7.45
2023-04-25T04:45:57.373Z,7.55
2023-04-25T04:48:33.902Z,9.68
2023-04-25T04:51:01.745Z,7.25
2023-04-25T04:53:29.337Z,6.85
2023-04-25T04:56:02.902Z,7.82
2023-04-25T04:58:32.170Z,7.93
2023-04-25T05:00:59.356Z,7.90
2023-04-25T05:03:28.580Z,7.82
2023-04-25T05:05:57.341Z,9.63
2023-04-25T05:08:24.731Z,8.75
2023-04-25T05:10:52.458Z,9.05
2023-04-25T05:13:20.719Z,6.88
2023-04-25T05:15:48.214Z,10.40
2023-04-25T05:18:15.842Z,7.18
2023-04-25T05:20:43.531Z,7.20
2023-04-25T05:23:12.162Z,7.93
2023-04-25T05:25:41.650Z,7.50
2023-04-25T05:28:09.500Z,6.90
2023-04-25T05:30:37.694Z,6.50
2023-04-25T05:33:05.163Z,7.63
2023-04-25T05:35:33.690Z,8.10
2023-04-25T05:38:01.094Z,6.60
2023-04-25T05:40:29.494Z,7.63
2023-04-25T05:42:57.009Z,7.63
2023-04-25T05:45:26.514Z,9.52
2023-04-25T05:47:54.905Z,6.57
2023-04-25T05:50:23.412Z,7.68
2023-04-25T05:52:52.297Z,9.75
2023-04-25T05:55:19.816Z,7.30
2023-04-25T05:57:47.732Z,8.48
2023-04-25T06:00:17.192Z,6.57
2023-04-25T06:02:44.468Z,7.10
2023-04-25T06:05:13.009Z,7.95
2023-04-25T06:07:40.794Z,8.73
2023-04-25T06:10:10.794Z,6.85
2023-04-25T06:12:40.158Z,6.88
2023-04-25T06:15:20.196Z,7.55
2023-04-25T06:17:54.245Z,8.73
2023-04-25T06:20:24.432Z,6.85
2023-04-25T06:22:53.930Z,7.38
2023-04-25T06:25:22.376Z,6.90
2023-04-25T06:27:49.522Z,7.85
2023-04-25T06:30:19.558Z,8.98
2023-04-25T06:32:47.042Z,7.82
2023-04-25T06:35:16.449Z,7.63
2023-04-25T06:37:43.933Z,7.50
2023-04-25T06:40:12.644Z,6.22
2023-04-25T06:42:41.086Z,7.82
2023-04-25T06:45:08.882Z,7.07
2023-04-25T06:47:36.395Z,7.63
2023-04-25T06:50:04.074Z,7.80
2023-04-25T06:52:31.566Z,9.02
2023-04-25T06:54:58.662Z,9.35
2023-04-25T06:57:25.746Z,9.55
2023-04-25T06:59:53.186Z,9.65
2023-04-25T07:02:20.431Z,9.80
2023-04-25T07:04:49.912Z,10.93
2023-04-25T07:07:18.329Z,9.98
2023-04-25T07:09:56.727Z,9.13
2023-04-25T07:12:23.791Z,9.20
2023-04-25T07:14:51.277Z,8.65
2023-04-25T07:17:18.665Z,9.55
2023-04-25T07:19:46.443Z,11.05
2023-04-25T07:22:13.623Z,9.55
2023-04-25T07:24:49.994Z,11.15
2023-04-25T07:27:18.364Z,11.18
2023-04-25T07:29:46.842Z,9.30
2023-04-25T07:32:15.334Z,9.50
2023-04-25T07:34:54.891Z,10.43
2023-04-25T07:37:21.989Z,9.20
2023-04-25T07:39:50.353Z,9.85
2023-04-25T07:42:19.866Z,10.23
2023-04-25T07:44:47.189Z,8.70
2023-04-25T07:47:14.998Z,7.78
2023-04-25T07:49:42.388Z,9.02
2023-04-25T07:52:09.782Z,5.35
2023-04-25T07:54:38.192Z,6.72
2023-04-25T07:57:07.649Z,5.82
2023-04-25T07:59:36.197Z,5.30
2023-04-25T08:02:03.908Z,8.55
2023-04-25T08:04:31.152Z,4.97
2023-04-25T08:06:59.658Z,4.95
2023-04-25T08:09:27.029Z,6.00
2023-04-25T08:11:54.608Z,4.95
2023-04-25T08:14:23.921Z,4.82
2023-04-25T08:16:52.467Z,4.97
2023-04-25T08:19:19.885Z,6.43
2023-04-25T08:21:47.383Z,5.35
2023-04-25T08:24:14.733Z,4.75
2023-04-25T08:26:42.525Z,4.80
2023-04-25T08:29:09.723Z,4.13
2023-04-25T08:31:37.202Z,3.85
2023-04-25T08:34:04.696Z,4.80
2023-04-25T08:36:39.378Z,6.90
2023-04-25T08:39:07.251Z,7.13
2023-04-25T08:41:35.027Z,3.55
2023-04-25T08:44:05.123Z,6.32
2023-04-25T08:46:33.390Z,6.03
2023-04-25T08:49:03.569Z,5.47
2023-04-25T08:51:33.869Z,8.27
2023-04-25T08:56:46.814Z,6.90
2023-04-25T08:59:15.607Z,5.80
2023-04-25T09:01:42.704Z,6.15
2023-04-25T09:04:11.195Z,6.95
2023-04-25T09:06:38.520Z,8.07
2023-04-25T09:09:10.085Z,6.05
2023-04-25T09:11:38.198Z,6.00
2023-04-25T09:14:22.195Z,7.60
2023-04-25T09:19:41.048Z,7.68
2023-04-25T09:22:09.636Z,7.15
2023-04-25T09:24:42.982Z,7.22
2023-04-25T09:27:24.168Z,7.63
2023-04-25T09:30:02.933Z,6.82
2023-04-25T09:32:31.343Z,8.98
2023-04-25T09:35:01.379Z,6.40
2023-04-25T09:37:31.565Z,5.55
2023-04-25T09:40:01.782Z,8.35
2023-04-25T09:42:32.669Z,9.02
2023-04-25T09:45:05.247Z,8.38
2023-04-25T09:47:33.406Z,8.00
2023-04-25T09:50:00.806Z,8.32
2023-04-25T09:52:27.900Z,9.90
2023-04-25T09:54:56.317Z,7.90
2023-04-25T09:57:27.919Z,7.72
2023-04-25T09:59:57.350Z,8.95
2023-04-25T10:02:27.077Z,7.65
2023-04-25T10:04:57.578Z,11.45
2023-04-25T10:07:29.108Z,12.73
2023-04-25T10:10:05.038Z,6.63
2023-04-25T10:12:34.846Z,6.72
2023-04-25T10:15:04.672Z,7.45
2023-04-25T10:17:32.880Z,7.05
2023-04-25T10:20:04.221Z,7.65
2023-04-25T10:22:35.595Z,6.82
2023-04-25T10:25:05.468Z,6.68
2023-04-25T10:27:35.694Z,9.02
2023-04-25T10:30:07.674Z,6.80
2023-04-25T10:32:37.311Z,6.93
2023-04-25T10:35:25.754Z,8.77
2023-04-25T10:38:25.644Z,9.32
2023-04-25T10:41:09.565Z,9.27
2023-04-25T10:43:43.836Z,7.00
2023-04-25T10:46:28.566Z,6.35
2023-04-25T10:48:58.659Z,4.80
2023-04-25T10:51:51.002Z,6.45
2023-04-25T10:54:21.458Z,11.52
2023-04-25T10:56:50.887Z,6.72
2023-04-25T10:59:20.143Z,4.93
2023-04-25T11:01:50.368Z,9.13
2023-04-25T11:04:26.814Z,5.50
2023-04-25T11:07:11.926Z,6.85
2023-04-25T11:09:42.685Z,7.90
2023-04-25T11:12:13.102Z,6.00
2023-04-25T11:17:19.254Z,7.13
2023-04-25T11:19:50.626Z,7.00
2023-04-25T11:22:18.774Z,6.78
2023-04-25T11:24:46.913Z,6.40
2023-04-25T11:27:16.396Z,5.95
2023-04-25T11:29:43.919Z,7.40
2023-04-25T11:32:19.783Z,5.30
2023-04-25T11:34:48.559Z,7.53
2023-04-25T11:37:22.381Z,6.43
2023-04-25T11:42:17.380Z,9.45
2023-04-25T11:44:45.150Z,7.03
2023-04-25T11:47:13.266Z,6.30
2023-04-25T11:49:40.837Z,5.50
2023-04-25T11:52:10.392Z,6.93
2023-04-25T11:54:39.658Z,5.60
2023-04-25T11:57:07.733Z,12.18
2023-04-25T11:59:35.203Z,6.32
2023-04-25T12:02:03.210Z,7.03
2023-04-25T12:04:34.076Z,5.50
2023-04-25T12:07:03.055Z,5.80
2023-04-25T12:09:35.169Z,7.55
2023-04-25T12:12:07.085Z,9.27
2023-04-25T12:14:37.024Z,5.53
2023-04-25T12:17:09.457Z,4.90
2023-04-25T12:19:43.045Z,5.93
2023-04-25T12:22:24.394Z,5.32
2023-04-25T12:24:54.543Z,6.25
2023-04-25T12:27:22.465Z,6.18
2023-04-25T12:29:54.488Z,8.70
2023-04-25T12:32:23.106Z,8.25
2023-04-25T12:34:50.322Z,8.07
2023-04-25T12:37:17.745Z,7.10
2023-04-25T12:39:45.182Z,3.88
2023-04-25T12:42:15.420Z,4.97
2023-04-25T12:44:43.707Z,5.82
2023-04-25T12:47:11.578Z,6.47
2023-04-25T12:49:41.262Z,5.55
2023-04-25T12:52:08.759Z,6.22
2023-04-25T12:54:36.533Z,6.43
2023-04-25T12:57:04.243Z,5.55
2023-04-25T12:59:32.640Z,5.93
2023-04-25T13:02:00.724Z,4.53
2023-04-25T13:04:28.218Z,3.30
2023-04-25T13:06:56.518Z,3.80
2023-04-25T13:09:23.898Z,3.75
2023-04-25T13:11:51.810Z,4.55
2023-04-25T13:14:19.521Z,3.83
2023-04-25T13:16:47.291Z,6.45
2023-04-25T13:19:15.968Z,6.47
2023-04-25T13:21:43.474Z,5.82
2023-04-25T13:24:11.080Z,8.52
2023-04-25T13:26:38.512Z,22.88
2023-04-25T13:29:05.959Z,6.20
2023-04-25T13:31:33.409Z,4.55
2023-04-25T13:34:01.912Z,5.70
2023-04-25T13:36:29.409Z,4.55
2023-04-25T13:38:56.714Z,9.80
2023-04-25T13:41:24.168Z,4.15
2023-04-25T13:43:51.890Z,6.93
2023-04-25T13:48:52.806Z,4.32
2023-04-25T13:51:23.226Z,7.05
2023-04-25T13:53:51.262Z,6.78
2023-04-25T13:56:20.904Z,5.82
2023-04-25T13:58:49.088Z,5.55
2023-04-25T14:01:16.690Z,4.05
2023-04-25T14:03:44.311Z,5.97
2023-04-25T14:06:12.449Z,5.72
2023-04-25T14:08:41.415Z,4.32
2023-04-25T14:11:08.505Z,3.42
2023-04-25T14:13:37.970Z,6.18
2023-04-25T14:16:06.524Z,4.57
2023-04-25T14:18:33.925Z,4.32
2023-04-25T14:21:02.592Z,4.72
2023-04-25T14:23:29.874Z,5.60
2023-04-25T14:25:57.602Z,4.60
2023-04-25T14:28:24.717Z,6.30
2023-04-25T14:30:52.777Z,7.20
2023-04-25T14:33:20.185Z,7.22
2023-04-25T14:35:47.770Z,4.93
2023-04-25T14:38:15.826Z,4.53
2023-04-25T14:40:43.900Z,5.88
2023-04-25T14:43:11.038Z,5.50
2023-04-25T14:45:38.597Z,3.70
2023-04-25T14:48:06.178Z,3.05
2023-04-25T14:50:33.790Z,4.38
2023-04-25T14:53:02.031Z,2.92
2023-04-25T14:55:29.591Z,3.72
2023-04-25T14:57:57.671Z,3.45
2023-04-25T15:00:26.462Z,2.45
2023-04-25T15:02:53.779Z,3.15
2023-04-25T15:05:21.642Z,4.45
2023-04-25T15:07:49.233Z,4.32
2023-04-25T15:10:19.070Z,5.15
2023-04-25T15:12:47.849Z,3.53
2023-04-25T15:15:22.668Z,3.38
2023-04-25T15:17:57.167Z,3.63
2023-04-25T15:20:26.371Z,2.97
2023-04-25T15:22:53.668Z,4.25
2023-04-25T15:25:21.426Z,3.00
2023-04-25T15:27:49.813Z,2.45
2023-04-25T15:30:18.192Z,3.72
2023-04-25T15:32:47.907Z,2.28
2023-04-25T15:35:16.565Z,10.38
2023-04-25T15:37:44.402Z,4.57
2023-04-25T15:40:14.949Z,3.47
2023-04-25T15:42:48.849Z,2.20
2023-04-25T15:45:18.100Z,3.28
2023-04-25T15:47:45.984Z,2.85
2023-04-25T15:50:15.403Z,3.05
2023-04-25T15:52:58.332Z,5.10
2023-04-25T15:55:27.115Z,5.85
2023-04-25T15:57:54.496Z,4.38
2023-04-25T16:00:23.118Z,3.53
2023-04-25T16:02:50.419Z,5.28
2023-04-25T16:05:18.745Z,4.18
2023-04-25T16:07:48.189Z,3.42
2023-04-25T16:10:20.197Z,4.70
2023-04-25T16:12:49.075Z,3.90
2023-04-25T16:15:18.822Z,4.00
2023-04-25T16:17:46.121Z,6.68
2023-04-25T16:20:13.700Z,7.63
2023-04-25T16:22:44.623Z,5.90
2023-04-25T16:25:14.716Z,7.85
2023-04-25T16:27:41.908Z,4.38
2023-04-25T16:30:11.336Z,3.65
2023-04-25T16:32:40.281Z,5.80
2023-04-25T16:35:09.938Z,4.22
2023-04-25T16:37:37.418Z,6.43
2023-04-25T16:40:05.180Z,2.92
2023-04-25T16:42:32.317Z,5.90
2023-04-25T16:44:59.661Z,7.05
2023-04-25T16:47:27.193Z,3.75
2023-04-25T16:49:54.890Z,4.80
2023-04-25T16:52:23.984Z,3.55
2023-04-25T16:54:51.656Z,3.80
2023-04-25T16:57:19.027Z,4.40
2023-04-25T16:59:46.994Z,5.20
2023-04-25T17:02:15.348Z,14.13
2023-04-25T17:04:43.445Z,25.35
2023-04-25T17:07:11.554Z,13.43
2023-04-25T17:09:39.928Z,5.75
2023-04-25T17:12:08.401Z,7.13
2023-04-25T17:14:37.564Z,7.80
2023-04-25T17:17:06.070Z,5.32
2023-04-25T17:19:34.744Z,5.55
2023-04-25T17:22:02.550Z,7.47
2023-04-25T17:24:30.598Z,3.97
2023-04-25T17:26:58.874Z,6.95
2023-04-25T17:29:29.649Z,5.55
2023-04-25T17:31:58.468Z,7.55
2023-04-25T17:34:25.998Z,6.00
2023-04-25T17:36:55.039Z,5.68
2023-04-25T17:39:22.297Z,4.38
2023-04-25T17:41:51.084Z,8.98
2023-04-25T17:44:18.708Z,3.95
2023-04-25T17:46:46.786Z,8.13
2023-04-25T17:49:14.664Z,4.97
2023-04-25T17:51:42.209Z,5.57
2023-04-25T17:54:09.869Z,4.82
2023-04-25T17:56:45.905Z,5.68
2023-04-25T17:59:13.159Z,8.05
2023-04-25T18:01:47.584Z,7.43
2023-04-25T18:04:16.391Z,7.38
2023-04-25T18:06:44.555Z,8.27
2023-04-25T18:09:17.980Z,10.00
2023-04-25T18:11:46.361Z,7.65
2023-04-25T18:14:17.366Z,5.03
2023-04-25T18:16:45.809Z,5.85
2023-04-25T18:19:16.544Z,9.90
2023-04-25T18:21:49.024Z,8.73
2023-04-25T18:24:27.554Z,8.95
2023-04-25T18:26:56.817Z,9.68
2023-04-25T18:29:32.833Z,7.38
2023-04-25T18:32:01.680Z,12.35
2023-04-25T18:34:31.037Z,9.32
2023-04-25T18:36:59.170Z,8.13
2023-04-25T18:39:28.080Z,6.43
2023-04-25T18:42:06.456Z,10.05
2023-04-25T18:44:40.414Z,7.70
2023-04-25T18:47:10.693Z,9.02
2023-04-25T18:49:40.884Z,9.75
2023-04-25T18:52:11.279Z,8.25
2023-04-25T18:54:39.572Z,10.77
2023-04-25T18:57:08.926Z,7.50
2023-04-25T18:59:37.650Z,8.85
2023-04-25T19:02:05.836Z,9.70
2023-04-25T19:04:34.284Z,10.13
2023-04-25T19:07:02.676Z,11.10
2023-04-25T19:09:31.678Z,8.63
2023-04-25T19:12:08.501Z,8.60
2023-04-25T19:14:36.552Z,10.68
2023-04-25T19:17:05.064Z,10.68
2023-04-25T19:19:33.179Z,9.52
2023-04-25T19:22:01.433Z,8.18
2023-04-25T19:24:29.628Z,8.65
2023-04-25T19:27:03.675Z,8.15
2023-04-25T19:29:33.457Z,7.47
2023-04-25T19:32:04.005Z,8.32
2023-04-25T19:34:32.218Z,9.98
2023-04-25T19:37:05.234Z,5.40
2023-04-25T19:39:33.350Z,7.60
2023-04-25T19:42:04.534Z,8.23
2023-04-25T19:44:33.335Z,9.48
2023-04-25T19:47:01.072Z,31.50
2023-04-25T19:49:30.370Z,12.55
2023-04-25T19:51:59.003Z,10.43
2023-04-25T19:54:26.889Z,8.52
2023-04-25T19:56:55.297Z,7.95
2023-04-25T19:59:22.861Z,8.15
2023-04-25T20:01:50.542Z,12.63
2023-04-25T20:04:18.797Z,24.98
2023-04-25T20:06:47.107Z,12.00
2023-04-25T20:09:14.971Z,17.77
2023-04-25T20:11:43.129Z,19.65
2023-04-25T20:14:12.910Z,15.90
2023-04-25T20:16:41.286Z,18.27
2023-04-25T20:19:13.006Z,14.00
2023-04-25T20:21:42.814Z,16.63
2023-04-25T20:24:12.233Z,16.85
2023-04-25T20:26:40.318Z,35.03
2023-04-25T20:29:08.497Z,19.10
2023-04-25T20:31:37.114Z,17.20
2023-04-25T20:34:04.598Z,19.33
2023-04-25T20:36:33.377Z,14.90
2023-04-25T20:39:01.229Z,16.20
2023-04-25T20:41:31.056Z,13.38
2023-04-25T20:44:05.515Z,16.73
2023-04-25T20:46:35.440Z,17.38
2023-04-25T20:49:05.339Z,12.27
2023-04-25T20:51:33.140Z,17.77
2023-04-25T20:54:00.708Z,17.27
2023-04-25T20:56:27.855Z,15.35
2023-04-25T20:58:56.395Z,18.20
2023-04-25T21:01:25.220Z,28.38
2023-04-25T21:03:59.425Z,26.88
2023-04-25T21:06:27.944Z,15.90
2023-04-25T21:08:55.513Z,16.65
2023-04-25T21:11:23.761Z,17.67
2023-04-25T21:13:52.097Z,23.45
2023-04-25T21:16:19.429Z,31.42
2023-04-25T21:18:46.813Z,28.55
2023-04-25T21:21:14.367Z,38.95
2023-04-25T21:23:42.946Z,19.92
2023-04-25T21:26:10.322Z,28.45
2023-04-25T21:28:37.855Z,17.75
2023-04-25T21:31:05.345Z,22.88
2023-04-25T21:33:32.666Z,22.50
2023-04-25T21:36:00.181Z,27.67
2023-04-25T21:38:27.768Z,16.50
2023-04-25T21:40:56.057Z,27.05
2023-04-25T21:43:23.502Z,26.05
2023-04-25T21:46:14.864Z,24.20
2023-04-25T21:48:38.402Z,27.25
2023-04-25T21:51:06.074Z,19.88
2023-04-25T21:53:33.255Z,25.10
2023-04-25T21:56:00.808Z,22.83
2023-04-25T21:58:28.241Z,24.67
2023-04-25T22:00:55.824Z,17.27
2023-04-25T22:03:23.033Z,23.20
2023-04-25T22:05:52.638Z,14.40
2023-04-25T22:08:20.091Z,30.67
2023-04-25T22:10:47.592Z,28.38
2023-04-25T22:13:15.546Z,25.27
2023-04-25T22:15:48.975Z,17.15
2023-04-25T22:18:16.622Z,22.05
2023-04-25T22:20:44.522Z,17.33
2023-04-25T22:23:12.359Z,15.07
2023-04-25T22:25:40.684Z,17.23
2023-04-25T22:28:20.733Z,18.90
2023-04-25T22:30:48.165Z,18.10
2023-04-25T22:33:15.706Z,16.65
2023-04-25T22:35:44.141Z,17.05
2023-04-25T22:38:11.705Z,18.33
2023-04-25T22:40:40.162Z,14.75
2023-04-25T22:43:08.533Z,17.38
2023-04-25T22:45:36.155Z,15.43
2023-04-25T22:48:03.833Z,17.70
2023-04-25T22:50:34.005Z,18.50
2023-04-25T22:53:01.991Z,17.55
2023-04-25T22:55:29.499Z,19.17
2023-04-25T22:57:57.900Z,17.52
2023-04-25T23:00:27.941Z,16.98
2023-04-25T23:02:55.274Z,20.00
2023-04-25T23:05:24.975Z,16.88
2023-04-25T23:07:59.432Z,17.05
2023-04-25T23:10:28.848Z,12.43
2023-04-25T23:13:00.716Z,21.33
2023-04-25T23:15:31.141Z,16.17
2023-04-25T23:17:58.976Z,19.63
2023-04-25T23:20:26.980Z,17.77
2023-04-25T23:22:55.351Z,18.30
2023-04-25T23:25:22.623Z,16.23
2023-04-25T23:27:49.942Z,15.30
2023-04-25T23:30:17.256Z,14.10
2023-04-25T23:32:45.188Z,17.38
2023-04-25T23:35:13.694Z,13.65
2023-04-25T23:37:41.334Z,14.02
2023-04-25T23:40:13.050Z,17.52
2023-04-25T23:42:41.466Z,17.33
2023-04-25T23:45:09.665Z,15.70
2023-04-25T23:47:37.731Z,17.98
2023-04-25T23:50:06.376Z,16.58
2023-04-25T23:52:33.734Z,24.27
2023-04-25T23:55:01.372Z,18.20
2023-04-25T23:57:30.668Z,19.95
2023-04-25T23:59:58.315Z,17.48
